Time;durP1;ratioP1;P1;durP2;ratioP2;P2;SDS_P1;SDS_P2;PMS_P1;PMS_P2;Temp;Humidity;BMP_temperature;BMP_pressure;BME280_temperature;BME280_humidity;BME280_pressure;Samples;Min_cycle;Max_cycle;Signal;HPM_P1;HPM_P2
2021/03/20 00:00:47;;;;;;;11.57;6.67;;;-1.70;99.90;;;;;;5041536;28;20415;-83
2021/03/20 00:03:13;;;;;;;11.10;6.67;;;-1.70;99.90;;;;;;5041935;28;20549;-83
2021/03/20 00:05:39;;;;;;;11.87;6.70;;;-1.70;99.90;;;;;;5041685;28;20448;-84
2021/03/20 00:08:07;;;;;;;11.13;6.90;;;-1.80;99.90;;;;;;5041428;28;20220;-84
2021/03/20 00:10:33;;;;;;;10.73;7.40;;;-1.70;99.90;;;;;;5042517;28;20423;-84
2021/03/20 00:13:00;;;;;;;14.03;6.87;;;-1.70;99.90;;;;;;5059062;28;21125;-84
2021/03/20 00:15:27;;;;;;;11.87;7.53;;;-1.60;99.90;;;;;;5041651;28;20462;-84
2021/03/20 00:17:53;;;;;;;11.30;7.50;;;-1.70;99.90;;;;;;5041235;28;20901;-84
2021/03/20 00:20:26;;;;;;;10.23;7.23;;;-1.80;99.90;;;;;;5059651;28;20409;-84
2021/03/20 00:22:52;;;;;;;13.40;8.10;;;-1.00;99.90;;;;;;5041748;28;20415;-83
2021/03/20 00:25:18;;;;;;;13.00;8.27;;;-1.80;99.90;;;;;;5041037;28;20430;-84
2021/03/20 00:27:43;;;;;;;12.80;8.43;;;-1.80;99.90;;;;;;5059292;28;20176;-83
2021/03/20 00:30:10;;;;;;;12.87;7.90;;;-0.80;99.90;;;;;;5041285;28;20425;-84
2021/03/20 00:32:36;;;;;;;11.90;7.90;;;;;;;;;;5041121;28;20201;-84
2021/03/20 00:35:08;;;;;;;10.27;6.87;;;-1.90;99.90;;;;;;5059541;28;20548;-84
2021/03/20 00:37:34;;;;;;;13.67;8.60;;;-1.90;99.90;;;;;;5040675;28;20443;-84
2021/03/20 00:40:01;;;;;;;13.87;8.33;;;-1.30;99.90;;;;;;5059145;28;20776;-84
2021/03/20 00:42:27;;;;;;;13.90;8.27;;;;;;;;;;5041604;28;20420;-84
2021/03/20 00:44:52;;;;;;;10.07;7.10;;;-1.90;99.90;;;;;;5041312;28;20827;-84
2021/03/20 00:47:18;;;;;;;12.30;8.17;;;-2.00;99.90;;;;;;5041006;28;20228;-83
2021/03/20 00:49:44;;;;;;;11.33;7.77;;;-2.00;99.90;;;;;;5058972;28;20607;-84
2021/03/20 00:52:09;;;;;;;13.80;8.27;;;-2.10;99.90;;;;;;5059496;28;20211;-84
2021/03/20 00:54:35;;;;;;;13.33;8.37;;;;;;;;;;5059897;28;20654;-84
2021/03/20 00:57:01;;;;;;;15.23;9.20;;;-2.10;99.90;;;;;;5041208;28;20557;-84
2021/03/20 00:59:27;;;;;;;14.07;9.37;;;-2.00;99.90;;;;;;5059152;28;20408;-84
2021/03/20 01:01:52;;;;;;;13.30;8.00;;;-2.10;99.90;;;;;;5041151;28;20570;-84
2021/03/20 01:04:18;;;;;;;15.43;9.33;;;-2.20;99.90;;;;;;5041383;28;20643;-84
2021/03/20 01:06:44;;;;;;;16.20;9.60;;;-2.30;99.90;;;;;;5059553;28;20213;-84
2021/03/20 01:09:10;;;;;;;14.13;8.60;;;-2.30;99.90;;;;;;5042056;28;20261;-84
2021/03/20 01:11:35;;;;;;;15.23;9.20;;;-2.40;99.90;;;;;;5059343;28;20203;-84
2021/03/20 01:14:01;;;;;;;12.73;8.70;;;-2.40;99.90;;;;;;5041675;28;20562;-84
2021/03/20 01:16:27;;;;;;;16.20;9.10;;;-2.40;99.90;;;;;;5059397;28;20189;-84
2021/03/20 01:18:54;;;;;;;14.40;8.77;;;-2.50;99.90;;;;;;5058737;28;20180;-84
2021/03/20 01:21:21;;;;;;;13.40;8.87;;;-2.50;99.90;;;;;;5041502;28;20435;-84
2021/03/20 01:23:46;;;;;;;14.87;9.73;;;-2.60;99.90;;;;;;5058666;28;20420;-84
2021/03/20 01:26:12;;;;;;;14.83;9.27;;;-2.60;99.90;;;;;;5059037;28;20475;-84
2021/03/20 01:28:39;;;;;;;14.73;9.33;;;-2.60;99.90;;;;;;5059791;28;20229;-84
2021/03/20 01:31:05;;;;;;;17.47;9.30;;;-2.70;99.90;;;;;;5040079;28;20180;-84
2021/03/20 01:33:31;;;;;;;14.60;8.90;;;-2.70;99.90;;;;;;5057102;28;20550;-84
2021/03/20 01:35:57;;;;;;;18.33;9.67;;;-2.70;99.90;;;;;;5039459;28;20468;-84
2021/03/20 01:38:24;;;;;;;15.97;9.90;;;-2.70;99.90;;;;;;5057174;28;20590;-84
2021/03/20 01:41:01;;;;;;;15.83;9.53;;;-2.70;99.90;;;;;;5039083;28;20416;-84
2021/03/20 01:43:28;;;;;;;16.47;8.80;;;-2.70;99.90;;;;;;5039197;28;20949;-84
2021/03/20 01:46:29;;;;;;;12.60;9.00;;;-2.70;99.90;;;;;;5056255;28;20427;-84
2021/03/20 01:48:55;;;;;;;15.43;9.63;;;-2.70;99.90;;;;;;5056595;28;20397;-84
2021/03/20 01:51:21;;;;;;;16.77;9.80;;;-2.80;99.90;;;;;;5038203;28;20481;-84
2021/03/20 01:53:53;;;;;;;15.63;9.13;;;-2.80;99.90;;;;;;5068170;28;20698;-84
2021/03/20 01:56:23;;;;;;;15.03;9.50;;;-2.80;99.90;;;;;;5062308;28;20209;-82
2021/03/20 01:58:51;;;;;;;14.97;9.37;;;-2.80;99.90;;;;;;5078374;28;20402;-84
2021/03/20 02:01:26;;;;;;;16.43;9.27;;;-2.80;99.90;;;;;;5040753;28;20953;-84
2021/03/20 02:03:53;;;;;;;14.67;9.47;;;-2.80;99.90;;;;;;5057786;28;20394;-84
2021/03/20 02:06:20;;;;;;;14.17;8.93;;;-2.90;99.90;;;;;;5057605;28;20431;-84
2021/03/20 02:08:48;;;;;;;14.33;8.57;;;-2.90;99.90;;;;;;5057886;28;20420;-84
2021/03/20 02:11:55;;;;;;;15.23;9.20;;;-1.00;99.90;;;;;;5039869;28;20412;-84
2021/03/20 02:14:40;;;;;;;17.13;9.20;;;-3.00;99.90;;;;;;5039512;28;20480;-84
2021/03/20 02:17:44;;;;;;;14.87;8.87;;;-3.00;99.90;;;;;;5039442;28;20438;-84
2021/03/20 02:20:43;;;;;;;16.43;8.60;;;-2.90;99.90;;;;;;5039834;28;20420;-84
2021/03/20 02:23:12;;;;;;;18.23;9.93;;;-2.80;99.90;;;;;;5057956;28;20899;-84
2021/03/20 02:25:43;;;;;;;17.57;9.87;;;-2.70;99.90;;;;;;5039819;28;20492;-84
2021/03/20 02:28:27;;;;;;;16.20;9.80;;;-2.70;99.90;;;;;;5057198;28;21017;-84
2021/03/20 02:31:21;;;;;;;15.43;8.80;;;-2.70;99.90;;;;;;5043056;28;20411;-84
2021/03/20 02:33:50;;;;;;;18.43;11.30;;;-2.60;99.90;;;;;;5064285;28;20847;-84
2021/03/20 02:36:42;;;;;;;18.63;9.80;;;-2.60;99.90;;;;;;5063802;28;20435;-84
2021/03/20 02:39:26;;;;;;;15.97;9.80;;;-2.60;99.90;;;;;;5045942;28;20922;-84
2021/03/20 02:41:58;;;;;;;13.13;8.17;;;-2.60;99.90;;;;;;5064934;28;20752;-84
2021/03/20 02:44:36;;;;;;;14.37;9.40;;;-2.60;99.90;;;;;;5064144;28;20942;-84
2021/03/20 02:47:04;;;;;;;14.70;9.13;;;-2.60;99.90;;;;;;5046487;28;20435;-84
2021/03/20 02:49:44;;;;;;;14.73;9.43;;;-2.60;99.90;;;;;;5045848;28;20777;-84
2021/03/20 02:52:19;;;;;;;15.77;9.77;;;-2.60;99.90;;;;;;5065195;28;20877;-84
2021/03/20 02:55:03;;;;;;;17.27;10.10;;;-2.60;99.90;;;;;;5046035;28;20417;-84
2021/03/20 02:57:37;;;;;;;16.50;9.20;;;-2.60;99.90;;;;;;5045993;28;20444;-84
2021/03/20 03:00:20;;;;;;;15.37;9.17;;;-2.60;99.90;;;;;;5046252;28;20415;-84
2021/03/20 03:02:48;;;;;;;15.93;9.70;;;-2.70;99.90;;;;;;5064494;28;20442;-84
2021/03/20 03:05:17;;;;;;;14.30;9.57;;;-2.70;99.90;;;;;;5046230;28;20423;-84
2021/03/20 03:08:13;;;;;;;14.30;9.00;;;-2.60;99.90;;;;;;5063725;28;20472;-84
2021/03/20 03:10:49;;;;;;;19.10;9.63;;;-2.60;99.90;;;;;;5037445;28;20430;-84
2021/03/20 03:13:26;;;;;;;14.90;8.93;;;-2.60;99.90;;;;;;5063376;28;20973;-84
2021/03/20 03:15:58;;;;;;;14.97;8.93;;;-2.70;99.90;;;;;;5044943;28;20443;-84
2021/03/20 03:18:36;;;;;;;13.53;8.80;;;-2.70;99.90;;;;;;5063276;28;20896;-84
2021/03/20 03:21:05;;;;;;;16.40;8.83;;;-2.60;99.90;;;;;;5063122;28;20928;-84
2021/03/20 03:23:35;;;;;;;14.67;8.27;;;-2.70;99.90;;;;;;5044735;28;20493;-84
2021/03/20 03:26:14;;;;;;;11.83;7.80;;;-2.70;99.90;;;;;;5064385;28;20762;-84
2021/03/20 03:28:48;;;;;;;12.47;7.73;;;-2.80;99.90;;;;;;5063090;28;20400;-84
2021/03/20 03:31:38;;;;;;;13.80;7.83;;;-2.70;99.90;;;;;;5044461;28;20415;-84
2021/03/20 03:34:12;;;;;;;14.30;8.37;;;-2.80;99.90;;;;;;5032840;28;20514;-83
2021/03/20 03:36:59;;;;;;;13.47;8.50;;;-2.80;99.90;;;;;;5045267;28;21016;-84
2021/03/20 03:39:51;;;;;;;10.80;7.27;;;-2.80;99.90;;;;;;5044450;28;20417;-84
2021/03/20 03:42:18;;;;;;;13.37;8.23;;;-2.80;99.90;;;;;;5042415;28;20926;-84
2021/03/20 03:44:46;;;;;;;13.93;8.60;;;-2.80;99.90;;;;;;5060031;28;20418;-84
2021/03/20 03:47:19;;;;;;;13.10;8.23;;;-2.80;99.90;;;;;;5059840;28;20447;-84
2021/03/20 03:49:45;;;;;;;17.40;8.77;;;-2.80;99.90;;;;;;5041773;28;20404;-84
2021/03/20 03:52:13;;;;;;;11.67;7.47;;;-2.80;99.90;;;;;;5059752;28;20426;-84
2021/03/20 03:54:40;;;;;;;11.93;7.67;;;-2.90;99.90;;;;;;5060334;28;20200;-84
2021/03/20 03:57:19;;;;;;;12.30;7.33;;;-2.80;99.90;;;;;;5041700;28;20435;-84
2021/03/20 03:59:47;;;;;;;11.37;7.33;;;-2.80;99.90;;;;;;5041975;28;20403;-84
2021/03/20 04:02:19;;;;;;;12.63;8.03;;;-2.80;99.90;;;;;;5042327;28;20418;-84
2021/03/20 04:05:11;;;;;;;16.23;8.20;;;-2.80;99.90;;;;;;5060298;28;20410;-84
2021/03/20 04:08:01;;;;;;;14.00;7.90;;;-2.70;99.90;;;;;;5041953;28;20512;-84
2021/03/20 04:10:48;;;;;;;11.33;7.47;;;-2.60;99.90;;;;;;5042244;28;20412;-84
2021/03/20 04:13:40;;;;;;;11.47;7.57;;;-2.60;99.90;;;;;;5041188;28;20521;-83
2021/03/20 04:16:22;;;;;;;13.17;7.83;;;-2.60;99.90;;;;;;5031095;28;20916;-83
2021/03/20 04:19:04;;;;;;;15.83;8.33;;;-2.60;99.90;;;;;;5059830;28;20411;-84
2021/03/20 04:21:51;;;;;;;12.67;7.67;;;-2.60;99.90;;;;;;5041334;28;20405;-83
2021/03/20 04:24:32;;;;;;;11.90;7.67;;;-2.70;99.90;;;;;;5058819;28;20416;-84
2021/03/20 04:27:05;;;;;;;14.83;8.07;;;-2.70;99.90;;;;;;5040753;28;20944;-84
2021/03/20 04:29:38;;;;;;;12.10;7.87;;;-2.70;99.90;;;;;;5058796;28;20422;-84
2021/03/20 04:32:09;;;;;;;12.90;7.17;;;-2.70;99.90;;;;;;5059073;28;20396;-84
2021/03/20 04:34:55;;;;;;;12.40;6.97;;;-2.70;99.90;;;;;;5040465;28;20420;-84
2021/03/20 04:37:25;;;;;;;11.03;7.20;;;-2.80;99.90;;;;;;5040437;28;20483;-83
2021/03/20 04:39:54;;;;;;;12.13;7.93;;;-2.80;99.90;;;;;;5058751;28;20407;-83
2021/03/20 04:42:29;;;;;;;12.03;7.73;;;-2.90;99.90;;;;;;5073960;28;20435;-83
2021/03/20 04:44:55;;;;;;;12.37;8.03;;;-2.80;99.90;;;;;;5063014;28;20422;-83
2021/03/20 04:47:26;;;;;;;12.07;7.57;;;-2.80;99.90;;;;;;5054212;28;20436;-83
2021/03/20 04:49:58;;;;;;;14.20;7.87;;;-2.80;99.90;;;;;;5072803;28;20388;-83
2021/03/20 04:52:30;;;;;;;13.57;8.23;;;-2.80;99.90;;;;;;5063539;28;20458;-83
2021/03/20 04:54:56;;;;;;;13.40;8.17;;;-2.70;99.90;;;;;;5056410;28;20428;-83
2021/03/20 04:57:41;;;;;;;13.23;9.00;;;-2.70;99.90;;;;;;5039504;28;20499;-83
2021/03/20 05:00:10;;;;;;;15.87;8.93;;;-2.70;99.90;;;;;;5039677;28;20837;-83
2021/03/20 05:02:43;;;;;;;14.73;9.83;;;-2.70;99.90;;;;;;5057984;28;20408;-83
2021/03/20 05:05:25;;;;;;;14.90;9.77;;;-2.70;99.90;;;;;;5056006;28;20449;-83
2021/03/20 05:07:53;;;;;;;13.43;8.97;;;-2.70;99.90;;;;;;5037797;28;20436;-83
2021/03/20 05:10:45;;;;;;;16.10;9.73;;;-2.60;99.90;;;;;;5037721;28;20420;-83
2021/03/20 05:13:36;;;;;;;13.73;8.63;;;-2.70;99.90;;;;;;5055595;28;20512;-83
2021/03/20 05:16:17;;;;;;;11.17;7.50;;;-2.70;99.90;;;;;;5037869;28;20524;-83
2021/03/20 05:18:50;;;;;;;11.57;7.93;;;-2.80;99.90;;;;;;5037858;28;20884;-83
2021/03/20 05:21:19;;;;;;;13.57;8.63;;;-2.80;99.90;;;;;;5038072;28;20423;-83
2021/03/20 05:23:46;;;;;;;13.97;8.30;;;-2.80;99.90;;;;;;5039643;28;20447;-84
2021/03/20 05:26:13;;;;;;;12.77;7.73;;;-2.80;99.90;;;;;;5058704;28;20444;-84
2021/03/20 05:28:38;;;;;;;12.70;7.83;;;-2.80;99.90;;;;;;5058398;28;20554;-84
2021/03/20 05:31:05;;;;;;;11.90;8.00;;;-2.80;99.90;;;;;;5058885;28;20892;-84
2021/03/20 05:33:32;;;;;;;13.13;8.43;;;-2.70;99.90;;;;;;5040692;28;20206;-84
2021/03/20 05:35:59;;;;;;;15.57;7.90;;;-2.80;99.90;;;;;;5040272;28;20486;-83
2021/03/20 05:38:25;;;;;;;11.30;8.27;;;-2.90;99.90;;;;;;5057003;28;20468;-83
2021/03/20 05:41:00;;;;;;;11.83;7.93;;;-2.70;99.90;;;;;;5039601;28;20412;-83
2021/03/20 05:43:59;;;;;;;13.70;8.00;;;-2.80;99.90;;;;;;5057268;28;20392;-83
2021/03/20 05:46:43;;;;;;;14.33;6.53;;;-2.90;99.90;;;;;;5038839;28;20455;-83
2021/03/20 05:49:44;;;;;;;9.07;6.37;;;-3.00;99.90;;;;;;5038951;28;20443;-83
2021/03/20 05:52:31;;;;;;;8.83;5.27;;;-3.00;99.90;;;;;;5038659;28;20459;-84
2021/03/20 05:55:15;;;;;;;7.47;5.73;;;-3.10;99.90;;;;;;5057093;28;20404;-83
2021/03/20 05:58:01;;;;;;;10.80;6.73;;;-3.00;99.90;;;;;;5056571;28;20419;-83
2021/03/20 06:00:49;;;;;;;8.80;6.07;;;-2.90;99.90;;;;;;5016985;28;21081;-83
2021/03/20 06:03:42;;;;;;;9.57;6.07;;;-3.00;99.90;;;;;;5039836;28;20768;-83
2021/03/20 06:06:38;;;;;;;11.03;5.97;;;-3.00;99.90;;;;;;5039215;28;20428;-83
2021/03/20 06:09:17;;;;;;;7.37;5.27;;;-3.10;99.90;;;;;;5057934;28;20408;-83
2021/03/20 06:12:06;;;;;;;10.17;5.70;;;-2.90;99.90;;;;;;5040288;28;20404;-83
2021/03/20 06:15:12;;;;;;;8.27;5.53;;;-3.00;99.90;;;;;;5058414;28;20406;-83
2021/03/20 06:17:56;;;;;;;10.10;6.20;;;-3.00;99.90;;;;;;5034959;28;20436;-83
2021/03/20 06:20:43;;;;;;;8.33;5.37;;;-3.00;99.90;;;;;;5039604;28;20455;-83
2021/03/20 06:23:47;;;;;;;9.63;5.63;;;-2.90;99.90;;;;;;5058008;28;20765;-84
2021/03/20 06:26:34;;;;;;;8.80;4.63;;;-2.90;99.90;;;;;;5039214;28;20450;-84
2021/03/20 06:29:07;;;;;;;9.63;5.70;;;-2.90;99.90;;;;;;5040374;28;20445;-83
2021/03/20 06:31:42;;;;;;;7.57;4.90;;;-3.00;99.90;;;;;;5040994;28;20458;-83
2021/03/20 06:34:24;;;;;;;9.13;5.27;;;-3.10;99.90;;;;;;5040000;28;20978;-83
2021/03/20 06:37:28;;;;;;;9.97;5.73;;;-3.00;99.90;;;;;;5058877;28;20822;-83
2021/03/20 06:39:56;;;;;;;7.47;5.37;;;-3.00;99.90;;;;;;5040646;28;20408;-84
2021/03/20 06:42:31;;;;;;;9.00;5.03;;;-2.90;99.90;;;;;;5059290;28;20465;-83
2021/03/20 06:45:18;;;;;;;9.90;4.60;;;-3.00;99.90;;;;;;5059565;28;20389;-83
2021/03/20 06:48:21;;;;;;;9.37;4.53;;;-2.90;99.90;;;;;;5059552;28;20408;-83
2021/03/20 06:50:54;;;;;;;5.00;3.60;;;-3.00;99.90;;;;;;5037407;28;20510;-83
2021/03/20 06:53:31;;;;;;;5.53;4.10;;;-3.00;99.90;;;;;;5040803;28;20460;-83
2021/03/20 06:55:59;;;;;;;6.60;5.20;;;-3.00;99.90;;;;;;5041735;28;20503;-84
2021/03/20 06:58:34;;;;;;;6.60;4.80;;;-2.80;99.90;;;;;;5043239;28;20431;-84
2021/03/20 07:01:06;;;;;;;7.03;4.93;;;-2.60;99.90;;;;;;5042714;28;20408;-83
2021/03/20 07:03:32;;;;;;;10.33;5.37;;;-2.50;99.90;;;;;;5043063;28;20416;-83
2021/03/20 07:06:13;;;;;;;6.67;4.70;;;-2.40;99.90;;;;;;5060537;28;20461;-84
2021/03/20 07:08:53;;;;;;;7.87;5.63;;;-2.50;99.90;;;;;;5042798;28;20197;-84
2021/03/20 07:11:29;;;;;;;8.43;5.67;;;-2.50;99.90;;;;;;5042960;28;20417;-83
2021/03/20 07:14:01;;;;;;;11.53;6.23;;;-2.50;99.90;;;;;;5042406;28;20467;-84
2021/03/20 07:16:34;;;;;;;9.33;6.03;;;-2.50;99.90;;;;;;5043687;28;20428;-84
2021/03/20 07:19:08;;;;;;;8.83;6.13;;;-2.50;99.90;;;;;;5064132;28;20491;-83
2021/03/20 07:21:38;;;;;;;9.07;6.63;;;-2.30;99.90;;;;;;5047018;28;20443;-83
2021/03/20 07:24:21;;;;;;;10.20;6.27;;;-2.10;99.90;;;;;;5063872;28;20431;-84
2021/03/20 07:27:13;;;;;;;8.37;5.47;;;-2.00;99.90;;;;;;5061038;28;20809;-84
2021/03/20 07:29:52;;;;;;;7.23;5.10;;;-2.20;99.90;;;;;;5043133;28;20420;-84
2021/03/20 07:32:19;;;;;;;9.63;6.23;;;-2.40;99.90;;;;;;5043415;28;20425;-84
2021/03/20 07:34:47;;;;;;;7.30;3.40;;;-2.50;99.90;;;;;;5044952;28;20468;-83
2021/03/20 07:37:18;;;;;;;4.20;3.00;;;-2.70;99.90;;;;;;5042773;28;20522;-83
2021/03/20 07:39:53;;;;;;;4.73;3.10;;;-2.80;99.90;;;;;;5061506;28;20442;-83
2021/03/20 07:42:24;;;;;;;4.33;2.80;;;-2.80;99.90;;;;;;5056949;28;20423;-82
2021/03/20 07:44:52;;;;;;;4.37;2.33;;;-2.90;99.90;;;;;;5064756;28;20439;-84
2021/03/20 07:47:21;;;;;;;4.03;3.00;;;-2.90;99.90;;;;;;5060769;28;20452;-84
2021/03/20 07:49:47;;;;;;;5.63;3.67;;;-2.50;99.90;;;;;;5047025;28;20428;-84
2021/03/20 07:52:26;;;;;;;6.93;4.63;;;-2.00;99.90;;;;;;5062869;28;20894;-84
2021/03/20 07:55:13;;;;;;;4.30;2.93;;;-1.30;99.90;;;;;;5044830;28;20212;-85
2021/03/20 07:57:49;;;;;;;5.23;3.37;;;-0.10;99.90;;;;;;5045070;28;20443;-85
2021/03/20 08:00:27;;;;;;;4.27;3.20;;;1.10;99.90;;;;;;5062173;28;20395;-86
2021/03/20 08:02:53;;;;;;;7.13;3.90;;;1.90;99.90;;;;;;5043315;28;20420;-86
2021/03/20 08:05:20;;;;;;;6.53;3.63;;;2.70;99.90;;;;;;5042924;28;20423;-86
2021/03/20 08:07:49;;;;;;;4.27;3.47;;;3.40;99.90;;;;;;5042242;28;20204;-86
2021/03/20 08:10:24;;;;;;;5.03;3.87;;;3.60;99.90;;;;;;5042869;28;20487;-87
2021/03/20 08:12:58;;;;;;;4.10;3.27;;;4.10;99.90;;;;;;5042561;28;20864;-87
2021/03/20 08:15:37;;;;;;;4.60;3.60;;;3.30;99.90;;;;;;5042322;28;20901;-87
2021/03/20 08:18:26;;;;;;;3.53;3.20;;;2.90;99.90;;;;;;5042135;28;20968;-87
2021/03/20 08:21:10;;;;;;;3.57;3.20;;;3.10;99.90;;;;;;5042317;28;20767;-87
2021/03/20 08:24:04;;;;;;;3.43;3.10;;;3.80;99.90;;;;;;5059540;28;20412;-87
2021/03/20 08:26:41;;;;;;;4.10;3.70;;;3.90;99.90;;;;;;5059837;28;20570;-87
2021/03/20 08:29:38;;;;;;;4.50;3.57;;;4.10;99.90;;;;;;5040905;28;20173;-87
2021/03/20 08:32:22;;;;;;;4.57;3.43;;;3.40;99.90;;;;;;5042935;28;20592;-87
2021/03/20 08:35:15;;;;;;;4.63;3.90;;;2.20;99.90;;;;;;5041407;28;20268;-86
2021/03/20 08:38:02;;;;;;;5.40;3.30;;;1.10;99.90;;;;;;5059535;28;20169;-86
2021/03/20 08:40:49;;;;;;;3.70;3.30;;;0.50;99.90;;;;;;5060579;28;20161;-87
2021/03/20 08:43:56;;;;;;;5.23;3.73;;;0.40;99.90;;;;;;5041427;28;20643;-86
2021/03/20 08:46:46;;;;;;;4.37;3.53;;;1.00;99.90;;;;;;5015368;28;20565;-87
2021/03/20 08:49:46;;;;;;;5.33;3.87;;;1.80;99.90;;;;;;5057755;28;20177;-88
2021/03/20 08:52:22;;;;;;;4.70;3.53;;;0.60;99.90;;;;;;5056238;28;20180;-87
2021/03/20 08:54:59;;;;;;;4.47;3.60;;;-0.40;99.90;;;;;;5081640;28;20172;-87
2021/03/20 08:57:44;;;;;;;5.27;3.73;;;-1.00;99.90;;;;;;5059074;28;20189;-86
2021/03/20 09:00:40;;;;;;;4.23;3.77;;;-0.30;99.90;;;;;;5044665;28;20165;-87
2021/03/20 09:03:16;;;;;;;4.37;3.80;;;1.10;99.90;;;;;;5041086;28;20409;-86
2021/03/20 09:05:45;;;;;;;4.83;3.40;;;2.40;99.90;;;;;;5055171;28;21239;-86
2021/03/20 09:08:27;;;;;;;3.07;2.77;;;2.20;99.90;;;;;;5079447;28;20532;-85
2021/03/20 09:11:13;;;;;;;4.03;3.00;;;2.10;99.90;;;;;;5059092;28;20236;-83
2021/03/20 09:13:43;;;;;;;3.33;2.87;;;2.60;99.90;;;;;;5060543;28;20209;-84
2021/03/20 09:16:31;;;;;;;4.70;2.93;;;2.40;99.90;;;;;;5060260;28;20217;-84
2021/03/20 09:19:01;;;;;;;3.53;2.73;;;2.50;99.90;;;;;;5043372;28;20181;-84
2021/03/20 09:21:28;;;;;;;3.00;2.70;;;1.90;99.90;;;;;;5063671;28;20155;-83
2021/03/20 09:23:54;;;;;;;4.87;3.10;;;1.90;99.90;;;;;;5048435;28;20597;-83
2021/03/20 09:26:43;;;;;;;2.87;2.27;;;2.00;99.90;;;;;;5063078;28;20204;-84
2021/03/20 09:29:20;;;;;;;2.80;2.43;;;2.40;99.90;;;;;;5041192;28;20219;-83
2021/03/20 09:31:54;;;;;;;3.70;2.20;;;2.50;99.90;;;;;;5055988;28;20173;-83
2021/03/20 09:34:33;;;;;;;2.57;2.23;;;2.60;99.90;;;;;;5080094;28;20210;-82
2021/03/20 09:37:04;;;;;;;4.20;2.60;;;3.40;99.90;;;;;;5061605;28;20212;-83
2021/03/20 09:39:43;;;;;;;3.37;2.60;;;3.40;99.90;;;;;;5061320;28;20169;-81
2021/03/20 09:42:27;;;;;;;3.47;2.40;;;3.60;99.90;;;;;;5062823;28;20177;-82
2021/03/20 09:45:28;;;;;;;3.10;2.80;;;4.20;99.90;;;;;;5061036;28;20226;-82
2021/03/20 09:47:56;;;;;;;3.57;2.60;;;5.00;99.90;;;;;;5057483;28;20210;-82
2021/03/20 09:50:24;;;;;;;4.53;3.13;;;4.00;99.90;;;;;;5058374;28;20177;-82
2021/03/20 09:53:10;;;;;;;3.00;2.70;;;3.10;99.90;;;;;;5039852;28;20711;-83
2021/03/20 09:55:39;;;;;;;3.47;2.50;;;1.90;99.90;;;;;;5067162;28;20259;-82
2021/03/20 09:58:28;;;;;;;3.47;2.97;;;1.20;99.90;;;;;;5057310;28;20203;-82
2021/03/20 10:00:54;;;;;;;3.80;2.70;;;0.90;99.90;;;;;;5058327;28;20200;-82
2021/03/20 10:03:44;;;;;;;3.27;2.47;;;0.60;99.90;;;;;;5078748;28;20188;-83
2021/03/20 10:06:12;;;;;;;3.70;2.83;;;0.70;99.90;;;;;;5080455;28;20256;-83
2021/03/20 10:08:44;;;;;;;3.50;3.20;;;0.80;99.90;;;;;;5080084;28;20693;-82
2021/03/20 10:11:37;;;;;;;3.20;2.90;;;1.10;99.90;;;;;;5081084;28;20161;-82
2021/03/20 10:14:24;;;;;;;4.67;3.53;;;1.20;99.90;;;;;;5062323;28;20347;-80
2021/03/20 10:17:08;;;;;;;5.07;3.03;;;1.10;99.90;;;;;;5078632;28;20193;-80
2021/03/20 10:19:40;;;;;;;5.90;2.90;;;0.80;99.90;;;;;;5078816;28;20227;-82
2021/03/20 10:22:08;;;;;;;3.17;2.87;;;1.40;99.90;;;;;;5080062;28;20170;-80
2021/03/20 10:24:35;;;;;;;3.00;2.70;;;2.20;99.90;;;;;;5080026;28;20255;-81
2021/03/20 10:27:04;;;;;;;3.10;2.50;;;3.00;99.90;;;;;;5062057;28;20636;-82
2021/03/20 10:29:38;;;;;;;3.00;2.40;;;3.70;99.90;;;;;;5061983;28;20184;-81
2021/03/20 10:32:16;;;;;;;2.43;2.23;;;4.40;99.90;;;;;;5078359;28;20203;-82
2021/03/20 10:34:56;;;;;;;3.73;2.80;;;4.80;93.60;;;;;;5061708;28;20630;-81
2021/03/20 10:37:30;;;;;;;2.20;2.00;;;5.10;96.60;;;;;;5066206;28;20228;-82
2021/03/20 10:40:12;;;;;;;3.93;2.50;;;4.90;93.20;;;;;;5088327;28;20169;-82
2021/03/20 10:42:41;;;;;;;2.80;2.20;;;4.30;96.90;;;;;;5086584;28;20240;-80
2021/03/20 10:45:23;;;;;;;2.47;2.27;;;3.20;93.30;;;;;;5080271;28;20181;-80
2021/03/20 10:47:48;;;;;;;2.70;2.10;;;2.10;93.40;;;;;;5061750;28;20184;-79
2021/03/20 10:50:29;;;;;;;2.73;2.10;;;2.00;93.40;;;;;;5061567;28;20271;-81
2021/03/20 10:53:00;;;;;;;2.77;2.50;;;1.60;93.20;;;;;;5065852;28;20704;-81
2021/03/20 10:55:38;;;;;;;2.97;2.30;;;2.00;96.50;;;;;;5104835;28;20613;-80
2021/03/20 10:58:06;;;;;;;2.37;2.17;;;2.70;94.90;;;;;;5085459;28;20215;-79
2021/03/20 11:00:45;;;;;;;2.73;2.50;;;2.10;96.70;;;;;;5103121;28;20233;-80
2021/03/20 11:03:27;;;;;;;3.90;2.40;;;2.00;98.60;;;;;;5102564;28;20172;-81
2021/03/20 11:05:53;;;;;;;5.17;3.50;;;1.60;97.50;;;;;;5101880;28;20608;-80
2021/03/20 11:08:19;;;;;;;3.13;2.80;;;1.30;97.40;;;;;;5102238;28;20196;-81
2021/03/20 11:10:48;;;;;;;5.50;3.10;;;1.00;97.40;;;;;;5101484;28;20182;-80
2021/03/20 11:13:17;;;;;;;3.43;3.03;;;1.50;99.90;;;;;;5083377;28;20290;-82
2021/03/20 11:15:45;;;;;;;3.20;2.60;;;3.10;99.90;;;;;;5083058;28;20220;-82
2021/03/20 11:18:17;;;;;;;3.20;2.90;;;3.80;98.50;;;;;;5101163;28;20173;-81
2021/03/20 11:20:45;;;;;;;3.20;2.60;;;4.50;95.40;;;;;;5083040;28;20523;-80
2021/03/20 11:23:35;;;;;;;3.43;2.93;;;4.50;97.00;;;;;;5081979;28;20551;-82
2021/03/20 11:26:26;;;;;;;4.53;3.67;;;4.40;93.30;;;;;;5100606;28;20200;-79
2021/03/20 11:28:53;;;;;;;4.00;3.07;;;3.30;93.60;;;;;;5102114;28;20166;-81
2021/03/20 11:31:20;;;;;;;3.13;2.63;;;2.40;93.20;;;;;;5083243;28;20550;-80
2021/03/20 11:33:47;;;;;;;2.70;2.50;;;2.20;92.90;;;;;;5100573;28;20286;-81
2021/03/20 11:36:19;;;;;;;5.10;2.60;;;2.00;92.50;;;;;;5101142;28;20192;-80
2021/03/20 11:38:46;;;;;;;12.17;7.33;;;1.70;92.80;;;;;;5100423;28;20157;-81
2021/03/20 11:41:12;;;;;;;3.00;2.77;;;2.30;95.90;;;;;;5082518;28;20176;-81
2021/03/20 11:43:48;;;;;;;3.80;3.20;;;2.70;96.20;;;;;;5082317;28;20529;-81
2021/03/20 11:46:33;;;;;;;3.67;3.27;;;2.70;93.40;;;;;;5100389;28;20199;-81
2021/03/20 11:49:06;;;;;;;5.90;5.40;;;2.40;93.70;;;;;;5099799;28;20160;-81
2021/03/20 11:51:45;;;;;;;4.17;3.00;;;2.20;92.50;;;;;;5100582;28;20243;-81
2021/03/20 11:54:37;;;;;;;4.70;3.47;;;1.80;93.80;;;;;;5100678;28;20629;-81
2021/03/20 11:57:11;;;;;;;7.10;3.93;;;1.40;93.10;;;;;;5082152;28;20196;-80
2021/03/20 11:59:44;;;;;;;3.90;3.50;;;1.50;96.40;;;;;;5082892;28;20175;-81
2021/03/20 12:02:36;;;;;;;3.87;3.57;;;1.80;95.80;;;;;;5084388;28;20240;-83
2021/03/20 12:05:07;;;;;;;4.57;3.43;;;1.50;97.70;;;;;;5078136;28;20184;-82
2021/03/20 12:07:41;;;;;;;4.83;3.53;;;1.50;98.80;;;;;;5086903;28;20226;-83
2021/03/20 12:10:17;;;;;;;4.47;3.80;;;1.30;96.90;;;;;;5105196;28;20214;-83
2021/03/20 12:12:44;;;;;;;8.57;4.80;;;1.10;99.00;;;;;;5087502;28;20242;-83
2021/03/20 12:15:25;;;;;;;5.70;4.20;;;1.00;98.70;;;;;;5085911;28;20176;-83
2021/03/20 12:17:51;;;;;;;4.87;3.93;;;0.80;99.90;;;;;;5087898;28;20176;-82
2021/03/20 12:20:43;;;;;;;4.97;4.10;;;0.70;98.80;;;;;;5102330;28;20237;-82
2021/03/20 12:23:12;;;;;;;7.93;6.30;;;0.70;99.10;;;;;;5084436;28;20418;-84
2021/03/20 12:25:51;;;;;;;5.67;4.10;;;0.70;99.20;;;;;;5084382;28;20802;-82
2021/03/20 12:28:39;;;;;;;4.30;3.80;;;0.80;99.90;;;;;;5101783;28;20909;-82
2021/03/20 12:31:14;;;;;;;8.97;8.07;;;0.80;99.90;;;;;;5084010;28;20505;-82
2021/03/20 12:33:52;;;;;;;12.33;10.07;;;0.90;99.60;;;;;;5083706;28;20673;-82
2021/03/20 12:36:32;;;;;;;6.77;4.87;;;1.00;99.90;;;;;;5084169;28;20487;-82
2021/03/20 12:38:59;;;;;;;5.17;4.20;;;1.90;99.30;;;;;;5083562;28;20433;-82
2021/03/20 12:41:28;;;;;;;3.23;2.93;;;2.40;97.70;;;;;;5084148;28;20450;-82
2021/03/20 12:44:08;;;;;;;4.27;3.40;;;3.00;93.60;;;;;;5083245;28;20472;-82
2021/03/20 12:46:36;;;;;;;4.20;3.27;;;2.60;94.50;;;;;;5083336;28;20441;-82
2021/03/20 12:49:03;;;;;;;5.20;3.30;;;2.00;94.50;;;;;;5100942;28;20414;-82
2021/03/20 12:51:29;;;;;;;15.57;13.97;;;1.70;93.70;;;;;;5082534;28;20414;-82
2021/03/20 12:53:55;;;;;;;10.53;9.63;;;1.60;92.00;;;;;;5082832;28;20302;-82
2021/03/20 12:56:21;;;;;;;4.83;3.77;;;1.40;92.50;;;;;;5100209;28;20862;-83
2021/03/20 12:58:47;;;;;;;4.07;3.67;;;1.70;95.50;;;;;;5082792;28;20176;-82
2021/03/20 13:01:13;;;;;;;4.40;3.30;;;2.80;93.00;;;;;;5101868;28;20176;-81
2021/03/20 13:03:39;;;;;;;19.57;15.23;;;5.30;94.80;;;;;;5083485;28;20577;-83
2021/03/20 13:06:05;;;;;;;3.83;3.53;;;7.40;88.30;;;;;;5101796;28;20223;-82
2021/03/20 13:08:37;;;;;;;3.63;3.10;;;6.10;84.30;;;;;;5083309;28;20816;-81
2021/03/20 13:11:19;;;;;;;3.53;3.23;;;4.00;87.60;;;;;;5082730;28;20243;-81
2021/03/20 13:13:44;;;;;;;5.03;3.60;;;2.50;92.00;;;;;;5083035;28;20200;-82
2021/03/20 13:16:10;;;;;;;2.93;2.73;;;1.60;94.70;;;;;;5084142;28;20250;-81
2021/03/20 13:18:35;;;;;;;3.40;3.10;;;1.10;95.40;;;;;;5084279;28;20180;-82
2021/03/20 13:21:01;;;;;;;3.67;3.20;;;1.20;97.10;;;;;;5083677;28;20309;-82
2021/03/20 13:23:27;;;;;;;4.53;3.40;;;1.10;96.80;;;;;;5101110;28;20180;-82
2021/03/20 13:25:53;;;;;;;3.67;2.70;;;1.10;97.20;;;;;;5082528;28;20203;-82
2021/03/20 13:28:19;;;;;;;4.27;3.37;;;1.10;98.20;;;;;;5098624;28;20190;-82
2021/03/20 13:30:45;;;;;;;3.37;2.87;;;1.00;97.80;;;;;;5097658;28;20179;-82